Time;durP1;ratioP1;P1;durP2;ratioP2;P2;SDS_P1;SDS_P2;PMS_P1;PMS_P2;Temp;Humidity;BMP_temperature;BMP_pressure;BME280_temperature;BME280_humidity;BME280_pressure;Samples;Min_cycle;Max_cycle;Signal;HPM_P1;HPM_P2
2023/06/19 00:00:44;;;;;;;4.32;3.92;;;28.50;36.50;;;;;;5087048;27;45291;-68
2023/06/19 00:03:10;;;;;;;4.20;3.80;;;28.50;36.50;;;;;;5086684;27;45404;-68
2023/06/19 00:05:37;;;;;;;4.28;3.80;;;28.50;36.60;;;;;;5086814;27;46741;-67
2023/06/19 00:08:06;;;;;;;4.28;3.88;;;28.50;36.60;;;;;;5086691;27;45340;-67
2023/06/19 00:10:33;;;;;;;4.30;3.90;;;28.50;36.60;;;;;;5086652;27;45335;-67
2023/06/19 00:13:00;;;;;;;4.13;3.80;;;28.50;36.70;;;;;;5087165;27;45344;-67
2023/06/19 00:15:29;;;;;;;4.20;3.88;;;28.50;36.70;;;;;;5086590;27;45325;-67
2023/06/19 00:17:56;;;;;;;3.92;3.55;;;28.50;36.70;;;;;;5086552;27;45522;-67
2023/06/19 00:20:23;;;;;;;4.53;3.97;;;28.50;36.70;;;;;;5086775;27;45271;-68
2023/06/19 00:22:51;;;;;;;3.97;3.67;;;28.40;36.80;;;;;;5087055;27;45277;-67
2023/06/19 00:25:18;;;;;;;4.13;3.83;;;28.40;36.80;;;;;;5086549;27;45960;-67
2023/06/19 00:27:45;;;;;;;3.60;3.28;;;28.40;36.90;;;;;;5086476;27;45381;-68
2023/06/19 00:30:12;;;;;;;4.35;3.95;;;28.40;36.80;;;;;;5086621;27;45317;-67
2023/06/19 00:32:47;;;;;;;4.10;3.70;;;28.40;37.00;;;;;;5083894;27;45312;-67
2023/06/19 00:35:14;;;;;;;3.83;3.50;;;28.40;37.70;;;;;;5086367;27;47545;-67
2023/06/19 00:37:44;;;;;;;4.28;3.88;;;28.40;37.00;;;;;;5086318;27;45244;-68
2023/06/19 00:40:13;;;;;;;3.53;3.22;;;28.40;37.00;;;;;;5086553;27;45306;-67
2023/06/19 00:42:40;;;;;;;3.85;3.55;;;28.40;37.10;;;;;;5086630;27;45170;-68
2023/06/19 00:45:08;;;;;;;3.80;3.50;;;28.30;37.00;;;;;;5086102;27;47314;-67
2023/06/19 00:47:34;;;;;;;3.47;3.17;;;28.30;37.10;;;;;;5086212;27;45471;-67
2023/06/19 00:50:03;;;;;;;4.40;3.40;;;28.40;37.20;;;;;;5086222;27;45351;-67
2023/06/19 00:52:29;;;;;;;3.78;3.45;;;28.30;37.20;;;;;;5086479;27;45316;-67
2023/06/19 00:54:56;;;;;;;3.80;3.50;;;28.30;37.30;;;;;;5085889;27;45318;-67
2023/06/19 00:57:23;;;;;;;3.53;3.22;;;28.30;37.40;;;;;;5086045;27;45505;-67
2023/06/19 00:59:52;;;;;;;3.85;3.55;;;28.30;37.20;;;;;;5086404;27;45311;-67
2023/06/19 01:02:23;;;;;;;3.88;3.58;;;28.30;37.30;;;;;;5086007;27;45437;-67
2023/06/19 01:04:51;;;;;;;4.13;3.55;;;28.30;37.30;;;;;;5085878;27;45355;-68
2023/06/19 01:07:23;;;;;;;3.30;3.10;;;28.20;37.20;;;;;;5086095;27;45216;-67
2023/06/19 01:09:53;;;;;;;3.50;3.20;;;28.20;37.30;;;;;;5086116;27;45298;-68
2023/06/19 01:12:23;;;;;;;4.70;3.17;;;28.30;37.40;;;;;;5086262;27;45467;-68
2023/06/19 01:14:55;;;;;;;3.45;3.15;;;28.30;37.40;;;;;;5085015;28;45537;-67
2023/06/19 01:17:22;;;;;;;3.78;3.42;;;28.20;37.40;;;;;;5086503;27;45391;-68
2023/06/19 01:19:49;;;;;;;4.05;3.40;;;28.20;37.40;;;;;;5086345;27;45339;-67
2023/06/19 01:22:26;;;;;;;3.35;3.05;;;28.20;37.40;;;;;;5086790;27;45359;-67
2023/06/19 01:24:52;;;;;;;3.25;3.00;;;28.20;37.00;;;;;;5086295;27;45478;-68
2023/06/19 01:27:19;;;;;;;3.50;3.20;;;28.20;37.40;;;;;;5086369;27;45243;-68
2023/06/19 01:29:46;;;;;;;3.17;2.95;;;28.20;37.40;;;;;;5086343;27;45291;-70
2023/06/19 01:32:16;;;;;;;2.95;2.75;;;28.20;37.40;;;;;;5086754;27;45342;-70
2023/06/19 01:34:43;;;;;;;3.30;3.08;;;28.10;37.40;;;;;;5086152;27;46415;-70
2023/06/19 01:37:10;;;;;;;3.60;3.30;;;28.10;37.50;;;;;;5086247;27;45138;-70
2023/06/19 01:39:38;;;;;;;3.45;3.15;;;28.10;37.50;;;;;;5086120;27;45345;-71
2023/06/19 01:42:06;;;;;;;2.80;2.60;;;28.10;37.50;;;;;;5086468;27;45469;-70
2023/06/19 01:44:32;;;;;;;3.67;3.38;;;28.10;37.80;;;;;;5085798;27;45543;-70
2023/06/19 01:46:59;;;;;;;3.53;3.22;;;28.10;37.60;;;;;;5086276;27;45261;-69
2023/06/19 01:49:26;;;;;;;3.53;3.22;;;28.10;37.90;;;;;;5086234;27;45338;-71
2023/06/19 01:51:53;;;;;;;3.40;3.10;;;28.00;37.80;;;;;;5086339;27;45217;-70
2023/06/19 01:54:20;;;;;;;3.60;3.00;;;28.00;38.30;;;;;;5086130;27;46668;-70
2023/06/19 01:56:48;;;;;;;4.82;3.47;;;28.00;38.40;;;;;;5086308;27;45387;-69
2023/06/19 01:59:15;;;;;;;3.65;2.72;;;28.00;38.90;;;;;;5086364;27;45338;-72
2023/06/19 02:01:42;;;;;;;3.20;2.78;;;28.00;38.90;;;;;;5086091;27;45299;-70
2023/06/19 02:04:09;;;;;;;4.13;2.97;;;27.90;39.10;;;;;;5086038;27;46558;-69
2023/06/19 02:06:35;;;;;;;3.63;3.00;;;28.00;39.40;;;;;;5085948;27;45350;-70
2023/06/19 02:09:03;;;;;;;3.38;3.05;;;27.90;39.30;;;;;;5086185;27;45273;-69
2023/06/19 02:11:29;;;;;;;3.40;3.10;;;27.90;39.40;;;;;;5086254;27;45538;-69
2023/06/19 02:13:58;;;;;;;5.00;3.22;;;27.90;39.30;;;;;;5085842;27;46337;-69
2023/06/19 02:16:24;;;;;;;3.42;3.13;;;27.90;39.30;;;;;;5086039;27;45373;-69
2023/06/19 02:18:51;;;;;;;2.70;2.50;;;27.90;39.50;;;;;;5085814;27;45294;-69
2023/06/19 02:21:18;;;;;;;3.05;2.75;;;27.90;39.60;;;;;;5086042;27;45328;-69
2023/06/19 02:23:45;;;;;;;3.13;2.88;;;27.80;40.50;;;;;;5085624;27;46299;-69
2023/06/19 02:26:12;;;;;;;3.72;3.20;;;27.80;39.60;;;;;;5087500;27;45314;-72
2023/06/19 02:28:39;;;;;;;3.90;2.83;;;27.80;39.70;;;;;;5088732;27;45246;-68
2023/06/19 02:31:07;;;;;;;3.35;2.92;;;27.80;39.90;;;;;;5089048;27;45351;-71
2023/06/19 02:33:34;;;;;;;2.70;2.50;;;27.80;39.90;;;;;;5089003;27;45398;-71
2023/06/19 02:36:01;;;;;;;2.83;2.63;;;27.80;39.90;;;;;;5089151;27;45325;-72
2023/06/19 02:38:29;;;;;;;3.03;2.72;;;27.70;39.80;;;;;;5089299;27;45231;-71
2023/06/19 02:40:57;;;;;;;3.65;2.88;;;27.70;40.20;;;;;;5089235;27;45530;-71
2023/06/19 02:43:24;;;;;;;2.90;2.60;;;27.70;40.00;;;;;;5088712;27;46697;-71
2023/06/19 02:45:51;;;;;;;2.80;2.60;;;27.70;40.10;;;;;;5088726;27;45344;-71
2023/06/19 02:48:19;;;;;;;2.92;2.72;;;27.70;40.10;;;;;;5089232;27;45329;-71
2023/06/19 02:50:46;;;;;;;2.85;2.63;;;27.70;40.00;;;;;;5089391;27;45681;-71
2023/06/19 02:53:13;;;;;;;2.80;2.60;;;27.70;40.10;;;;;;5088796;27;45347;-71
2023/06/19 02:55:39;;;;;;;2.70;2.50;;;27.60;40.10;;;;;;5088773;27;45399;-70
2023/06/19 02:58:06;;;;;;;3.33;2.60;;;27.60;40.10;;;;;;5089257;27;45304;-71
2023/06/19 03:00:33;;;;;;;4.22;2.88;;;27.60;40.20;;;;;;5089070;27;45412;-71
2023/06/19 03:03:00;;;;;;;3.13;2.40;;;27.60;40.20;;;;;;5088343;27;46320;-71
2023/06/19 03:05:28;;;;;;;3.90;2.90;;;27.60;40.20;;;;;;5088672;27;45320;-70
2023/06/19 03:07:55;;;;;;;3.15;2.60;;;27.60;40.20;;;;;;5089584;27;45255;-71
2023/06/19 03:10:22;;;;;;;2.70;2.50;;;27.50;40.30;;;;;;5089494;27;45588;-71
2023/06/19 03:12:49;;;;;;;3.05;2.58;;;27.50;40.10;;;;;;5088876;27;47840;-70
2023/06/19 03:15:16;;;;;;;2.90;2.50;;;27.50;40.20;;;;;;5087782;27;45344;-70
2023/06/19 03:17:42;;;;;;;2.92;2.63;;;27.50;40.30;;;;;;5088447;27;45424;-71
2023/06/19 03:20:11;;;;;;;4.15;2.58;;;27.50;40.30;;;;;;5088578;27;45525;-70
2023/06/19 03:22:40;;;;;;;2.53;2.33;;;27.50;40.20;;;;;;5088666;27;47280;-71
2023/06/19 03:25:08;;;;;;;2.67;2.40;;;27.50;40.20;;;;;;5088559;27;45599;-71
2023/06/19 03:27:35;;;;;;;2.67;2.30;;;27.50;40.10;;;;;;5088589;27;45303;-71
2023/06/19 03:30:03;;;;;;;2.30;2.10;;;27.40;40.30;;;;;;5088536;27;45367;-72
2023/06/19 03:32:30;;;;;;;2.97;2.65;;;27.40;40.10;;;;;;5087969;27;46493;-70
2023/06/19 03:34:57;;;;;;;2.60;2.40;;;27.40;40.20;;;;;;5088300;27;45357;-69
2023/06/19 03:37:24;;;;;;;2.90;2.47;;;27.40;40.10;;;;;;5087519;27;45445;-69
2023/06/19 03:39:52;;;;;;;3.25;2.58;;;27.40;40.10;;;;;;5088633;27;45194;-69
2023/06/19 03:42:19;;;;;;;2.58;2.38;;;27.30;40.00;;;;;;5088146;27;46451;-70
2023/06/19 03:44:46;;;;;;;2.72;2.53;;;27.30;40.20;;;;;;5088143;27;45301;-69
2023/06/19 03:47:12;;;;;;;2.78;2.50;;;27.30;40.20;;;;;;5087910;27;45397;-70
2023/06/19 03:49:39;;;;;;;2.70;2.35;;;27.30;40.10;;;;;;5088273;27;45438;-69
2023/06/19 03:52:07;;;;;;;2.75;2.30;;;27.30;40.10;;;;;;5087731;27;46408;-69
2023/06/19 03:54:33;;;;;;;3.78;2.60;;;27.30;40.20;;;;;;5087786;27;45269;-70
2023/06/19 03:57:02;;;;;;;2.60;2.40;;;27.30;40.00;;;;;;5088180;27;45402;-69
2023/06/19 03:59:29;;;;;;;2.40;2.20;;;27.20;40.00;;;;;;5085315;27;45407;-69
2023/06/19 04:01:56;;;;;;;2.30;2.10;;;27.20;40.00;;;;;;5086756;27;45426;-69
2023/06/19 04:04:22;;;;;;;2.60;2.40;;;27.20;40.00;;;;;;5087628;27;45267;-69
2023/06/19 04:06:49;;;;;;;2.58;2.38;;;27.20;40.10;;;;;;5088451;27;45220;-69
2023/06/19 04:09:16;;;;;;;2.78;2.58;;;27.10;40.00;;;;;;5087882;27;45358;-70
2023/06/19 04:11:43;;;;;;;2.30;2.08;;;27.20;40.00;;;;;;5087552;27;46358;-68
2023/06/19 04:14:11;;;;;;;2.45;2.25;;;27.10;40.00;;;;;;5087446;27;45327;-68
2023/06/19 04:16:38;;;;;;;3.28;2.58;;;27.10;40.00;;;;;;5087686;27;45351;-69
2023/06/19 04:19:05;;;;;;;2.08;1.90;;;27.10;40.00;;;;;;5087866;27;45323;-69
2023/06/19 04:21:32;;;;;;;2.47;2.10;;;27.10;40.10;;;;;;5087468;27;45415;-69
2023/06/19 04:23:58;;;;;;;2.28;2.15;;;27.10;40.00;;;;;;5087376;27;45299;-68
2023/06/19 04:26:25;;;;;;;2.50;2.30;;;27.10;40.10;;;;;;5087658;27;45257;-68
2023/06/19 04:28:52;;;;;;;2.70;2.50;;;27.10;40.20;;;;;;5087309;27;45310;-69
2023/06/19 04:31:21;;;;;;;2.65;2.42;;;27.00;40.00;;;;;;5087193;27;46445;-70
2023/06/19 04:33:48;;;;;;;2.40;2.08;;;27.00;40.10;;;;;;5087239;27;45407;-68
2023/06/19 04:36:15;;;;;;;3.05;2.22;;;27.00;40.40;;;;;;5087808;27;45281;-69
2023/06/19 04:38:41;;;;;;;2.80;2.60;;;27.00;40.20;;;;;;5087372;27;45273;-69
2023/06/19 04:41:08;;;;;;;2.50;2.30;;;27.00;40.10;;;;;;5087127;27;46613;-69
2023/06/19 04:43:35;;;;;;;2.50;2.22;;;27.00;40.20;;;;;;5086928;27;45331;-68
2023/06/19 04:46:03;;;;;;;2.75;2.20;;;27.00;40.10;;;;;;5086828;27;45494;-68
2023/06/19 04:48:31;;;;;;;2.42;2.20;;;27.00;40.10;;;;;;5086901;27;45418;-68
2023/06/19 04:51:00;;;;;;;2.75;2.50;;;27.00;40.20;;;;;;5086675;27;45311;-70
2023/06/19 04:53:27;;;;;;;2.20;2.08;;;27.00;40.30;;;;;;5086663;27;45352;-70
2023/06/19 04:55:55;;;;;;;2.30;2.10;;;26.90;40.30;;;;;;5087131;27;45388;-70
2023/06/19 04:58:22;;;;;;;2.33;2.13;;;26.90;40.20;;;;;;5086953;27;45304;-68
2023/06/19 05:00:52;;;;;;;2.30;2.10;;;26.90;40.20;;;;;;5086740;27;45449;-68
2023/06/19 05:03:19;;;;;;;2.40;2.20;;;27.00;40.40;;;;;;5086394;27;45359;-70
2023/06/19 05:05:47;;;;;;;1.90;1.80;;;26.90;40.30;;;;;;5087071;27;45355;-71
2023/06/19 05:08:14;;;;;;;2.67;2.33;;;26.90;40.30;;;;;;5086818;27;45412;-69
2023/06/19 05:10:41;;;;;;;2.70;2.50;;;26.90;40.20;;;;;;5086381;27;46492;-68
2023/06/19 05:13:08;;;;;;;4.10;2.30;;;26.90;40.20;;;;;;5086403;27;45282;-70
2023/06/19 05:15:35;;;;;;;2.10;2.00;;;26.90;40.30;;;;;;5086690;27;45517;-70
2023/06/19 05:18:02;;;;;;;2.38;2.17;;;26.90;40.20;;;;;;5087120;27;45418;-70
2023/06/19 05:20:29;;;;;;;2.35;2.15;;;26.90;40.30;;;;;;5086508;27;45234;-69
2023/06/19 05:22:58;;;;;;;2.42;2.22;;;26.90;40.50;;;;;;5086397;27;45280;-68
2023/06/19 05:25:25;;;;;;;2.20;2.00;;;26.90;40.30;;;;;;5086729;27;45398;-68
2023/06/19 05:27:51;;;;;;;2.78;2.17;;;26.90;40.30;;;;;;5086963;27;45420;-68
2023/06/19 05:30:19;;;;;;;3.25;2.15;;;26.90;40.40;;;;;;5086301;27;45272;-68
2023/06/19 05:32:46;;;;;;;2.55;2.35;;;26.90;40.40;;;;;;5085678;27;45311;-68
2023/06/19 05:35:12;;;;;;;2.30;1.95;;;26.90;41.10;;;;;;5085912;27;45291;-68
2023/06/19 05:37:42;;;;;;;2.42;2.22;;;26.90;40.60;;;;;;5086420;27;45414;-68
2023/06/19 05:40:11;;;;;;;2.08;1.95;;;26.90;40.40;;;;;;5086283;27;47686;-68
2023/06/19 05:42:38;;;;;;;2.20;2.10;;;26.90;40.60;;;;;;5086241;27;45253;-68
2023/06/19 05:45:06;;;;;;;2.17;2.00;;;26.90;40.50;;;;;;5086515;27;45475;-69
2023/06/19 05:47:32;;;;;;;2.45;2.25;;;26.90;40.50;;;;;;5086489;27;45287;-68
2023/06/19 05:49:59;;;;;;;3.92;2.15;;;26.90;40.60;;;;;;5085733;27;46765;-70
2023/06/19 05:52:26;;;;;;;2.15;1.95;;;26.90;40.50;;;;;;5085867;27;45356;-70
2023/06/19 05:54:53;;;;;;;2.55;2.00;;;26.90;40.50;;;;;;5085668;27;45370;-71
2023/06/19 05:57:21;;;;;;;2.85;1.90;;;26.90;40.50;;;;;;5086038;27;45284;-70
2023/06/19 05:59:48;;;;;;;2.38;2.17;;;26.90;40.50;;;;;;5086135;27;46754;-69
2023/06/19 06:02:15;;;;;;;3.38;2.22;;;26.90;40.50;;;;;;5089262;27;45192;-70
2023/06/19 06:04:42;;;;;;;2.10;1.90;;;26.90;40.50;;;;;;5089520;27;45319;-69
2023/06/19 06:07:09;;;;;;;1.92;1.83;;;26.90;40.50;;;;;;5089954;27;45260;-70
2023/06/19 06:09:36;;;;;;;2.97;2.13;;;26.90;40.30;;;;;;5089086;27;46820;-69
2023/06/19 06:12:03;;;;;;;2.25;2.05;;;27.00;40.60;;;;;;5089374;27;45275;-70
2023/06/19 06:14:31;;;;;;;2.35;2.15;;;26.90;40.40;;;;;;5089337;27;45265;-69
2023/06/19 06:16:58;;;;;;;2.30;2.10;;;27.00;40.50;;;;;;5089712;27;45426;-69
2023/06/19 06:19:25;;;;;;;3.10;2.30;;;27.00;40.50;;;;;;5088365;27;46419;-70
2023/06/19 06:21:52;;;;;;;2.35;2.15;;;27.00;40.40;;;;;;5089294;27;45359;-70
2023/06/19 06:24:19;;;;;;;2.83;2.33;;;27.00;40.40;;;;;;5089236;27;45309;-70
2023/06/19 06:26:46;;;;;;;2.58;2.10;;;27.00;40.50;;;;;;5086915;27;45319;-70
2023/06/19 06:29:13;;;;;;;2.28;2.17;;;27.00;40.60;;;;;;5088821;27;46412;-69
2023/06/19 06:31:41;;;;;;;2.10;2.00;;;27.00;40.50;;;;;;5088954;27;45298;-68
2023/06/19 06:34:08;;;;;;;2.25;2.05;;;27.10;40.60;;;;;;5089175;27;45253;-69
2023/06/19 06:36:35;;;;;;;1.80;1.70;;;27.10;40.50;;;;;;5089177;27;45508;-69
2023/06/19 06:39:02;;;;;;;2.05;1.95;;;27.10;40.50;;;;;;5088886;27;46954;-69
2023/06/19 06:41:29;;;;;;;3.05;2.00;;;27.10;40.60;;;;;;5088926;27;45333;-68
2023/06/19 06:43:56;;;;;;;2.05;1.95;;;27.10;40.60;;;;;;5088739;27;45339;-68
2023/06/19 06:46:22;;;;;;;2.05;1.95;;;27.20;40.60;;;;;;5089146;27;45427;-69
2023/06/19 06:48:51;;;;;;;2.60;2.35;;;27.20;40.60;;;;;;5088551;27;45306;-69
2023/06/19 06:51:17;;;;;;;2.30;2.10;;;27.20;40.50;;;;;;5088708;27;45273;-69
2023/06/19 06:53:44;;;;;;;1.95;1.85;;;27.20;40.70;;;;;;5088925;27;45272;-68
2023/06/19 06:56:11;;;;;;;2.20;2.00;;;27.20;40.60;;;;;;5088958;27;45513;-69
2023/06/19 06:58:38;;;;;;;2.28;2.08;;;27.20;40.60;;;;;;5088587;27;45383;-69
2023/06/19 07:01:05;;;;;;;2.13;1.92;;;27.20;40.70;;;;;;5088715;27;45329;-68
2023/06/19 07:03:32;;;;;;;2.40;2.20;;;27.20;40.70;;;;;;5088062;27;45324;-68
2023/06/19 07:06:02;;;;;;;2.03;1.92;;;27.20;40.60;;;;;;5088082;27;45461;-68
2023/06/19 07:08:29;;;;;;;2.13;2.00;;;27.20;40.50;;;;;;5088374;27;46610;-68
2023/06/19 07:10:56;;;;;;;2.03;1.92;;;27.30;40.50;;;;;;5088314;27;45258;-69
2023/06/19 07:13:22;;;;;;;2.30;2.10;;;27.30;40.30;;;;;;5087224;27;45295;-69
2023/06/19 07:15:49;;;;;;;2.20;2.10;;;27.30;40.40;;;;;;5088680;27;45411;-68
2023/06/19 07:18:16;;;;;;;2.20;2.00;;;27.30;40.40;;;;;;5084918;27;45423;-68
2023/06/19 07:20:43;;;;;;;2.78;1.88;;;27.30;40.20;;;;;;5087486;27;45268;-68
2023/06/19 07:23:11;;;;;;;2.13;1.95;;;27.30;40.20;;;;;;5087646;27;45217;-68
2023/06/19 07:25:38;;;;;;;2.40;2.13;;;27.40;40.20;;;;;;5087913;27;45624;-68
2023/06/19 07:28:05;;;;;;;2.05;1.88;;;27.40;40.10;;;;;;5087533;27;45330;-68
2023/06/19 07:30:32;;;;;;;2.03;1.88;;;27.40;39.90;;;;;;5087104;28;46427;-68
2023/06/19 07:32:58;;;;;;;2.28;2.08;;;27.40;39.90;;;;;;5087666;27;45369;-68
2023/06/19 07:35:25;;;;;;;2.22;2.10;;;27.40;39.90;;;;;;5087642;27;45242;-68
2023/06/19 07:37:52;;;;;;;2.38;2.17;;;27.40;39.80;;;;;;5087235;27;46317;-68
2023/06/19 07:40:20;;;;;;;1.95;1.80;;;27.50;39.90;;;;;;5087176;27;45422;-68
2023/06/19 07:42:47;;;;;;;1.98;1.77;;;27.50;39.80;;;;;;5087795;27;45297;-69
2023/06/19 07:45:14;;;;;;;2.03;1.88;;;27.50;39.80;;;;;;5087621;27;45308;-68
2023/06/19 07:47:41;;;;;;;2.00;1.90;;;27.50;39.60;;;;;;5087394;27;48088;-68
2023/06/19 07:50:08;;;;;;;2.42;2.08;;;27.50;39.60;;;;;;5087047;27;45323;-68
2023/06/19 07:52:35;;;;;;;2.42;2.00;;;27.50;39.50;;;;;;5087150;27;45312;-68
2023/06/19 07:55:03;;;;;;;3.03;2.50;;;27.60;39.60;;;;;;5087100;27;45451;-68
2023/06/19 07:57:31;;;;;;;2.25;2.05;;;27.60;39.40;;;;;;5086957;27;47248;-68
2023/06/19 07:59:58;;;;;;;2.40;2.20;;;27.60;39.30;;;;;;5084360;27;45654;-68
2023/06/19 08:02:24;;;;;;;2.30;2.20;;;27.70;39.30;;;;;;5086877;27;45284;-67
2023/06/19 08:04:51;;;;;;;2.17;2.08;;;27.70;39.10;;;;;;5087185;27;45403;-68
2023/06/19 08:07:18;;;;;;;2.50;2.30;;;27.70;39.00;;;;;;5087092;27;46369;-67
2023/06/19 08:09:45;;;;;;;2.60;2.25;;;27.70;39.10;;;;;;5086586;27;46067;-67
2023/06/19 08:12:12;;;;;;;1.98;1.77;;;27.80;39.20;;;;;;5087022;27;45273;-68
2023/06/19 08:14:40;;;;;;;2.05;1.95;;;27.80;39.30;;;;;;5084533;27;45479;-67
2023/06/19 08:17:07;;;;;;;2.10;1.90;;;27.80;39.30;;;;;;5086648;27;47817;-68
2023/06/19 08:19:34;;;;;;;2.00;1.90;;;27.80;39.40;;;;;;5086578;27;45329;-68
2023/06/19 08:22:01;;;;;;;2.33;1.80;;;27.80;39.30;;;;;;5086833;27;45291;-67
2023/06/19 08:24:28;;;;;;;2.05;1.95;;;27.80;39.30;;;;;;5086940;27;45276;-67
2023/06/19 08:26:55;;;;;;;2.30;2.10;;;27.80;39.50;;;;;;5086371;27;46709;-67
2023/06/19 08:29:22;;;;;;;2.65;2.03;;;27.80;39.70;;;;;;5086367;27;45337;-68
2023/06/19 08:31:50;;;;;;;2.28;2.10;;;27.90;39.60;;;;;;5086491;27;45306;-67
2023/06/19 08:34:17;;;;;;;1.83;1.73;;;27.90;39.70;;;;;;5086633;27;45126;-68
2023/06/19 08:36:44;;;;;;;2.10;1.90;;;27.90;39.70;;;;;;5083694;27;45284;-67
2023/06/19 08:39:11;;;;;;;2.58;2.00;;;27.90;39.70;;;;;;5086133;27;45435;-67
2023/06/19 08:41:38;;;;;;;1.88;1.77;;;27.90;39.70;;;;;;5086488;27;45318;-67
2023/06/19 08:44:05;;;;;;;2.13;2.03;;;27.90;39.70;;;;;;5086651;27;45408;-68
2023/06/19 08:46:32;;;;;;;3.13;2.13;;;28.00;39.80;;;;;;5086096;27;46277;-67
2023/06/19 08:49:00;;;;;;;2.20;2.00;;;28.00;39.90;;;;;;5086003;27;45338;-67
2023/06/19 08:51:28;;;;;;;1.92;1.83;;;28.00;39.60;;;;;;5086172;27;45357;-67
2023/06/19 08:53:56;;;;;;;2.40;2.20;;;28.00;39.60;;;;;;5086228;27;45620;-66
2023/06/19 08:56:23;;;;;;;1.90;1.80;;;28.10;39.80;;;;;;5086509;27;46303;-68
2023/06/19 08:58:50;;;;;;;1.90;1.80;;;28.10;39.60;;;;;;5086154;27;45398;-69
2023/06/19 09:01:18;;;;;;;2.13;2.03;;;28.10;39.40;;;;;;5086330;27;45300;-69
2023/06/19 09:03:46;;;;;;;2.22;2.08;;;28.10;39.40;;;;;;5085932;27;45230;-68
2023/06/19 09:06:15;;;;;;;2.53;2.33;;;28.10;39.40;;;;;;5085849;27;46646;-68
2023/06/19 09:08:42;;;;;;;2.38;2.28;;;28.10;39.50;;;;;;5085832;27;45266;-68
2023/06/19 09:11:09;;;;;;;2.20;2.05;;;28.20;39.30;;;;;;5086225;27;45366;-69
2023/06/19 09:13:36;;;;;;;3.35;1.95;;;28.20;39.20;;;;;;5085964;27;45321;-70
2023/06/19 09:16:03;;;;;;;2.13;1.85;;;28.20;40.00;;;;;;5085618;27;45296;-67
2023/06/19 09:18:31;;;;;;;2.55;2.28;;;28.20;39.30;;;;;;5086138;27;45478;-67
2023/06/19 09:20:58;;;;;;;2.13;2.03;;;28.30;39.30;;;;;;5085828;27;45336;-67
2023/06/19 09:23:26;;;;;;;2.42;2.22;;;28.30;39.40;;;;;;5085967;27;45371;-69
2023/06/19 09:25:54;;;;;;;2.17;1.95;;;28.30;39.60;;;;;;5085593;27;46378;-69
2023/06/19 09:28:22;;;;;;;2.25;2.05;;;28.30;39.60;;;;;;5085547;27;45375;-67
2023/06/19 09:30:56;;;;;;;2.50;2.30;;;28.40;39.70;;;;;;5085889;27;45353;-68
2023/06/19 09:33:23;;;;;;;2.65;2.22;;;28.40;39.90;;;;;;5085923;27;45272;-69
2023/06/19 09:35:50;;;;;;;2.50;2.30;;;28.40;40.00;;;;;;5084455;27;47293;-69
2023/06/19 09:38:18;;;;;;;3.30;3.00;;;28.50;40.30;;;;;;5085574;27;45392;-69
2023/06/19 09:40:46;;;;;;;3.17;2.97;;;28.50;40.40;;;;;;5085467;27;45557;-67
2023/06/19 09:43:14;;;;;;;3.75;3.13;;;28.50;40.40;;;;;;5083120;27;45334;-71
2023/06/19 09:45:40;;;;;;;9.98;2.97;;;28.50;44.00;;;;;;5085715;27;45309;-71
2023/06/19 09:48:07;;;;;;;4.30;2.88;;;28.60;43.80;;;;;;5085805;27;45253;-70
2023/06/19 09:50:34;;;;;;;13.52;3.60;;;28.60;44.80;;;;;;5097075;27;45324;-69
2023/06/19 09:53:01;;;;;;;10.43;2.83;;;28.60;44.20;;;;;;5106228;27;45505;-72
2023/06/19 09:55:29;;;;;;;8.27;3.45;;;28.70;45.20;;;;;;5105397;27;48671;-68
2023/06/19 09:57:57;;;;;;;9.73;3.25;;;28.70;45.70;;;;;;5105713;27;45407;-69
2023/06/19 10:00:31;;;;;;;6.15;2.67;;;28.80;46.30;;;;;;5105915;27;45320;-67
2023/06/19 10:03:00;;;;;;;8.82;3.60;;;28.90;45.30;;;;;;5105751;27;45294;-69
2023/06/19 10:05:30;;;;;;;3.22;2.90;;;28.90;44.10;;;;;;5106174;27;45686;-72
2023/06/19 10:07:59;;;;;;;12.00;3.70;;;29.00;42.80;;;;;;5105694;27;45314;-72
2023/06/19 10:10:27;;;;;;;8.13;3.35;;;29.00;44.00;;;;;;5106579;27;45362;-72
2023/06/19 10:12:55;;;;;;;5.88;2.80;;;29.10;44.90;;;;;;5106286;27;44832;-72
2023/06/19 10:15:24;;;;;;;5.88;3.00;;;29.10;45.10;;;;;;5105767;27;45324;-72
2023/06/19 10:17:52;;;;;;;5.18;2.78;;;29.20;45.20;;;;;;5106359;27;45405;-72
2023/06/19 10:20:23;;;;;;;4.13;2.92;;;29.20;43.70;;;;;;5106116;27;45327;-71
2023/06/19 10:22:57;;;;;;;3.10;2.80;;;29.30;43.70;;;;;;5106657;27;45376;-71
2023/06/19 10:25:24;;;;;;;2.65;2.45;;;29.40;43.50;;;;;;5106172;27;46417;-76
2023/06/19 10:27:54;;;;;;;3.00;2.80;;;29.40;43.50;;;;;;5105778;27;45474;-70
2023/06/19 10:30:20;;;;;;;5.78;3.05;;;29.50;43.80;;;;;;5106282;27;45312;-72
2023/06/19 10:32:49;;;;;;;5.20;2.78;;;29.50;44.00;;;;;;5106299;27;45415;-71
2023/06/19 10:35:17;;;;;;;2.88;2.60;;;29.60;44.10;;;;;;5105847;27;46402;-72
2023/06/19 10:37:43;;;;;;;3.97;2.95;;;29.70;44.90;;;;;;5105495;27;45402;-72
2023/06/19 10:40:12;;;;;;;3.63;2.92;;;29.70;44.80;;;;;;5106184;27;45298;-69
2023/06/19 10:42:39;;;;;;;2.70;2.50;;;29.80;44.00;;;;;;5106634;27;45310;-71
2023/06/19 10:45:07;;;;;;;8.85;3.60;;;29.80;43.40;;;;;;5105785;27;45430;-70
2023/06/19 10:47:34;;;;;;;5.72;3.22;;;29.90;44.10;;;;;;5107571;27;45311;-70
2023/06/19 10:50:03;;;;;;;3.97;3.28;;;29.90;44.50;;;;;;5108723;27;45272;-67
2023/06/19 10:52:30;;;;;;;6.40;2.40;;;30.00;44.20;;;;;;5109265;27;45474;-70
2023/06/19 10:54:57;;;;;;;3.05;2.83;;;30.20;43.40;;;;;;5109237;27;45408;-66
2023/06/19 10:57:30;;;;;;;4.00;2.80;;;30.20;42.40;;;;;;5108745;27;45374;-66
2023/06/19 10:59:58;;;;;;;6.60;3.40;;;30.30;43.90;;;;;;5108823;27;45295;-68
2023/06/19 11:02:24;;;;;;;4.80;2.97;;;30.40;43.20;;;;;;5108951;27;45392;-70
2023/06/19 11:04:53;;;;;;;5.30;2.90;;;30.50;42.90;;;;;;5108744;27;46334;-71
2023/06/19 11:07:22;;;;;;;4.00;3.00;;;30.50;41.80;;;;;;5109212;27;45183;-71
2023/06/19 11:09:49;;;;;;;6.00;3.17;;;30.60;41.00;;;;;;5108960;27;45359;-70
2023/06/19 11:12:20;;;;;;;8.48;3.63;;;30.60;42.30;;;;;;5109081;27;45489;-67
2023/06/19 11:14:47;;;;;;;13.10;8.68;;;30.60;41.80;;;;;;5108208;27;46349;-70
2023/06/19 11:17:14;;;;;;;18.00;6.80;;;30.70;42.40;;;;;;5108353;27;45341;-69
2023/06/19 11:19:42;;;;;;;12.50;5.93;;;30.80;41.30;;;;;;5108505;27;45360;-68
2023/06/19 11:22:09;;;;;;;6.85;4.38;;;30.80;41.30;;;;;;5103150;27;45255;-68
2023/06/19 11:24:37;;;;;;;9.68;4.32;;;30.80;38.30;;;;;;5087250;27;45327;-68
2023/06/19 11:27:05;;;;;;;8.15;4.63;;;30.80;37.70;;;;;;5087584;27;45356;-68
2023/06/19 11:29:32;;;;;;;5.82;3.85;;;30.80;38.60;;;;;;5087685;27;45304;-69
2023/06/19 11:32:06;;;;;;;4.60;3.83;;;30.80;37.40;;;;;;5087697;27;45553;-70
2023/06/19 11:34:33;;;;;;;3.90;3.60;;;30.80;36.40;;;;;;5095934;27;45255;-67
2023/06/19 11:37:00;;;;;;;3.90;3.28;;;30.80;35.40;;;;;;5106611;27;45192;-68
2023/06/19 11:39:28;;;;;;;4.30;3.47;;;30.70;35.50;;;;;;5107450;27;45399;-71
2023/06/19 11:41:56;;;;;;;3.72;3.30;;;30.70;35.50;;;;;;5107721;27;45495;-69
2023/06/19 11:44:22;;;;;;;4.40;3.40;;;30.70;35.50;;;;;;5107111;27;46444;-70
2023/06/19 11:46:49;;;;;;;3.30;3.10;;;30.70;34.90;;;;;;5107187;27;45331;-69
2023/06/19 11:49:17;;;;;;;3.45;3.03;;;30.60;35.10;;;;;;5107578;27;45398;-69
2023/06/19 11:51:44;;;;;;;3.80;3.30;;;30.60;34.90;;;;;;5107337;27;45553;-69
2023/06/19 11:54:13;;;;;;;4.00;3.30;;;30.60;35.20;;;;;;5106874;27;46488;-70
2023/06/19 11:56:40;;;;;;;4.50;3.08;;;30.70;35.10;;;;;;5107579;27;45327;-69
2023/06/19 11:59:08;;;;;;;4.50;3.30;;;30.70;36.10;;;;;;5106502;27;45329;-70
2023/06/19 12:01:35;;;;;;;6.97;3.45;;;30.80;37.40;;;;;;5108251;27;45425;-69
2023/06/19 12:04:02;;;;;;;6.20;3.65;;;30.80;37.80;;;;;;5107522;27;45402;-69
2023/06/19 12:06:29;;;;;;;3.97;3.10;;;31.00;37.60;;;;;;5107426;27;45265;-71
2023/06/19 12:08:55;;;;;;;12.23;3.50;;;31.00;35.70;;;;;;5107970;27;45332;-71
2023/06/19 12:11:22;;;;;;;7.88;3.28;;;31.10;35.40;;;;;;5107948;27;45316;-70
2023/06/19 12:13:50;;;;;;;4.65;3.20;;;31.10;34.90;;;;;;5107644;27;45365;-71
2023/06/19 12:16:19;;;;;;;3.45;2.83;;;31.20;35.80;;;;;;5107434;27;45495;-69
2023/06/19 12:18:45;;;;;;;5.28;2.95;;;31.30;34.20;;;;;;5107036;27;45337;-68
2023/06/19 12:21:12;;;;;;;3.00;2.80;;;31.30;34.20;;;;;;5107563;27;45526;-68
2023/06/19 12:23:39;;;;;;;5.60;3.15;;;31.30;34.30;;;;;;5104229;27;45421;-69
2023/06/19 12:26:06;;;;;;;3.40;3.10;;;31.30;34.70;;;;;;5107570;27;45425;-70
2023/06/19 12:28:33;;;;;;;4.68;3.00;;;31.30;35.00;;;;;;5107701;27;45268;-71
2023/06/19 12:31:00;;;;;;;6.07;3.28;;;31.30;34.70;;;;;;5107780;27;45363;-69
2023/06/19 12:33:32;;;;;;;4.45;2.97;;;31.30;35.60;;;;;;5105641;27;45366;-68
2023/06/19 12:35:59;;;;;;;6.85;3.60;;;31.30;34.40;;;;;;5106377;27;45409;-68
2023/06/19 12:38:26;;;;;;;7.90;3.00;;;31.40;35.60;;;;;;5106736;27;45321;-72
2023/06/19 12:40:53;;;;;;;3.25;2.95;;;31.40;35.60;;;;;;5106766;27;45358;-69
2023/06/19 12:43:20;;;;;;;3.95;2.85;;;31.50;35.80;;;;;;5103664;27;46253;-68
2023/06/19 12:45:46;;;;;;;3.20;2.83;;;31.50;34.80;;;;;;5106471;27;45303;-69